DW2959 Murcia ES current weather conditions

sailwx.info

Wind from 092

Air temperature 20.0° C
Dewpoint 15.8° C

Last reported at 2016-Jul-24 05:49 UTC.
Time now 2016-Jul-24 06:50 UTC

Location: N 38°00' W 001°02'.
View on Google Maps.

See reports from other nearby stations

  
Tides and Currents Weather Stations Pressure Air Temp Water Temp Dewpoint Dewpoint Depression Visibility Wind Speed Wind Dir Waves Ship Positions
date/time (UTC)wind fromknots sea level pressurealtimeterstation pressurevisibilityair tempwater tempwave heightnotes
2016-Jul-24 05:49 092 20.0
2016-Jul-24 05:35 092 20.0
2016-Jul-24 05:19 092 19.4
2016-Jul-24 05:04 092 19.4
2016-Jul-24 04:49 092 19.4
2016-Jul-24 04:32 092 20.0
2016-Jul-24 04:17 092 20.0
2016-Jul-24 04:02 092 20.0
2016-Jul-24 03:50 092 20.0
2016-Jul-24 03:32 092 20.0
2016-Jul-24 03:17 092 20.0
2016-Jul-24 03:02 092 20.6
2016-Jul-24 02:47 092 21.1
2016-Jul-24 02:32 092 21.1
2016-Jul-24 02:17 092 21.1
2016-Jul-24 02:02 092 21.1
2016-Jul-24 01:46 092 21.1
2016-Jul-24 01:31 092 21.1
2016-Jul-24 01:16 092 21.7
2016-Jul-24 01:01 092 21.7
2016-Jul-24 00:46 092 21.7
2016-Jul-24 00:31 092 22.2
2016-Jul-24 00:16 092 22.2
2016-Jul-24 00:01 092 22.8
2016-Jul-23 23:46 092 22.8
2016-Jul-23 23:32 092 23.3
2016-Jul-23 23:15 092 23.3
2016-Jul-23 23:00 092 23.3
2016-Jul-23 22:45 092 23.9
2016-Jul-23 22:30 092 23.9
2016-Jul-23 22:00 092 23.9
2016-Jul-23 21:46 092 24.4
2016-Jul-23 21:32 092 24.4
2016-Jul-23 21:15 092 24.4
2016-Jul-23 21:00 092 25.0
2016-Jul-23 20:45 092 25.0
2016-Jul-23 20:30 092 0 gusting 5 25.6
2016-Jul-23 20:14 103 1 gusting 5 25.6
2016-Jul-23 19:59 092 2 gusting 6 25.6
2016-Jul-23 19:44 113 2 gusting 6 26.1
2016-Jul-23 19:30 121 0 gusting 7 26.1
2016-Jul-23 19:15 108 0 gusting 6 26.7
2016-Jul-23 18:59 081 1 gusting 6 27.2
2016-Jul-23 18:44 090 2 gusting 7 27.2
2016-Jul-23 18:28 086 3 gusting 9 27.8
2016-Jul-23 18:13 089 4 gusting 8 27.8
2016-Jul-23 17:59 094 5 gusting 11 27.8
2016-Jul-23 17:44 064 4 gusting 11 28.3
2016-Jul-23 17:28 073 4 gusting 10 28.3
2016-Jul-23 17:13 096 5 gusting 13 28.9
2016-Jul-23 16:58 113 2 gusting 8 28.9
2016-Jul-23 16:43 086 3 gusting 11 29.4
2016-Jul-23 16:29 108 3 gusting 10 29.4
2016-Jul-23 16:13 094 4 gusting 11 29.4
2016-Jul-23 15:59 160 5 gusting 11 29.4
2016-Jul-23 15:43 094 5 gusting 11 29.4
2016-Jul-23 15:28 117 7 gusting 13 29.4
2016-Jul-23 15:12 138 5 gusting 11 29.4
2016-Jul-23 14:58 112 5 gusting 11 29.4
2016-Jul-23 14:42 083 4 gusting 11 29.4
2016-Jul-23 14:27 122 4 gusting 10 29.4
2016-Jul-23 14:15 082 4 gusting 11 29.4
2016-Jul-23 13:57 084 3 gusting 9 29.4
2016-Jul-23 13:42 080 4 gusting 13 29.4
2016-Jul-23 13:27 104 6 gusting 12 29.4
2016-Jul-23 13:12 066 5 gusting 14 29.4
2016-Jul-23 12:57 140 4 gusting 13 29.4
2016-Jul-23 12:42 142 2 gusting 8 29.4
2016-Jul-23 12:27 110 5 gusting 12 29.4
2016-Jul-23 12:12 058 3 gusting 9 29.4
2016-Jul-23 11:56 061 5 gusting 13 28.9
2016-Jul-23 11:41 078 4 gusting 12 28.9
2016-Jul-23 11:27 063 5 gusting 12 28.9
2016-Jul-23 11:11 101 5 gusting 13 28.9
2016-Jul-23 10:56 067 5 gusting 12 28.9
2016-Jul-23 10:42 110 4 gusting 9 28.9
2016-Jul-23 10:26 125 3 gusting 13 28.3
2016-Jul-23 10:14 076 6 gusting 11 28.3
2016-Jul-23 09:56 115 4 gusting 10 28.3
2016-Jul-23 09:41 120 5 gusting 12 28.3
2016-Jul-23 09:25 118 5 gusting 12 28.3
2016-Jul-23 09:10 062 4 gusting 9 27.8
2016-Jul-23 08:55 087 2 gusting 9 27.8
2016-Jul-23 08:41 047 4 gusting 9 27.2
2016-Jul-23 08:25 030 1 gusting 8 26.1
2016-Jul-23 08:11 060 1 gusting 5 26.7
2016-Jul-23 07:57 093 26.1
2016-Jul-23 07:40 098 25.0
2016-Jul-23 07:24 101 24.4
2016-Jul-23 07:10 103 23.9
2016-Jul-23 06:54
2016-Jul-22 20:22 102 25.6
2016-Jul-22 20:07 101 25.6
2016-Jul-22 19:51 101 25.6
2016-Jul-22 19:36 101 26.1
2016-Jul-22 19:21 092 0 gusting 6 26.1
2016-Jul-22 19:06 109 26.1
2016-Jul-22 18:54 107 0 gusting 8 26.7
2016-Jul-22 15:50 138 5 gusting 13 29.4
2016-Jul-22 15:35 132 6 gusting 14 29.4
2016-Jul-22 15:20 145 5 gusting 11 30.6
2016-Jul-22 15:05 130 2 gusting 13 30.0
2016-Jul-22 14:50 119 5 gusting 13 30.6
2016-Jul-22 14:34 103 3 gusting 15 30.6
2016-Jul-22 14:20 122 5 gusting 15 30.6
2016-Jul-22 14:04 124 7 gusting 12 31.1
2016-Jul-22 13:49 157 6 gusting 13 31.1
2016-Jul-22 13:34 105 5 gusting 13 31.7
2016-Jul-22 13:20 153 3 gusting 15 31.7
2016-Jul-22 13:04 155 2 gusting 8 31.7
2016-Jul-22 12:49 122 6 gusting 13 31.7
2016-Jul-22 12:34 114 5 gusting 13 31.7
2016-Jul-22 12:19 111 6 gusting 12 31.7
2016-Jul-22 12:05 092 3 gusting 14 31.7
2016-Jul-22 11:49 069 2 gusting 11 31.7
2016-Jul-22 11:34 078 1 gusting 9 31.7
2016-Jul-22 11:20 084 0 gusting 11 31.1
2016-Jul-22 11:04 084 5 gusting 8 31.1
2016-Jul-22 10:49 065 1 gusting 8 30.6
2016-Jul-22 10:33 097 1 gusting 11 30.6
2016-Jul-22 10:18 057 3 gusting 9 30.6
2016-Jul-22 10:03 079 1 gusting 9 30.0
2016-Jul-22 09:48 069 1 gusting 11 29.4
2016-Jul-22 09:32 051 1 gusting 8 29.4
2016-Jul-22 09:19 058 2 gusting 6 28.9
2016-Jul-22 09:02 111 0 gusting 6 28.3
2016-Jul-22 08:47 049 3 gusting 7 27.8
2016-Jul-22 08:32 055 2 gusting 5 27.2
2016-Jul-22 08:16 079 0 gusting 3 26.1
2016-Jul-22 08:01 035 2 gusting 6 25.6
2016-Jul-22 07:46 069 25.0
2016-Jul-22 07:31 223 25.0
2016-Jul-22 07:16 225 23.9
2016-Jul-22 07:01 225 23.9
2016-Jul-22 06:46 223 23.3
2016-Jul-22 06:31 223 23.3
2016-Jul-22 06:16 221 22.8
2016-Jul-22 06:00 221 22.8